Hovedside
METAR-TAF:

METAR-TAF

Lufthavner :

Acapulco, Mexico

General Juan N. Álvarez internasjonale lufthavn

breddegrad: 16-46N, lengdegrad: 099-45W, høyde over havet: 5 m

Gjeldene værobservasjon

Denne rapporten ble laget for 41 minutter siden, klokken 21:46 UTC
Vind 8 kt fra Vest-sørvest
Temperatur 28°C
Luftfuktighet 74%
Trykk 1008 hPa
Sikt: 9.7 km
Spredte skyer i en høyde av 30000 ft

METAR: MMAA 212146Z 25008KT 6SM SCT300 28/23 A2978 RMK 8/001 HZY

Tid: 16:27 (22:27 UTC)

Varsel

Denne rapporten ble laget for 6 timer og 8 minutter siden, klokken 16:19 UTC
Varsel gyldig fra 21. klokken 18 UTC til 22. klokken 24 UTC
Vind 10 kt fra Vest-sørvest
Sikt: 10 km
Skyfri himmel
Blir
fra 22. klokken 02 UTC til 22. klokken 03 UTC
Vind kt fra Nord
Fra 22. klokken 1600 UTC
Vind 10 kt fra Vest-sørvest
Sikt: 10 km
Skyfri himmel

TAF: MMAA 211619Z 2118/2224 24010KT P6SM SKC TX30/2120Z TN24/2212Z BECMG 2202/2203 00000KT FM221600 25010KT P6SM SKC

Værobservasjoner og værvarsel for over 4000 flyplasser (METAR- og TAF-rapporter).

Tilgjengelige stasjoner er representert av de røde og gule prikkene på kartet.

Hold musepekeren over prikken for å se navnet på stasjonen.

Klikk så for å se værobservasjoner og -varsler.

For å forandre kartet kan du klikke på den grønne knappen med svart kryss for å zoome inn, på den grønne knappen med strek for å zoome ut, eller på de grønne pilene for å se tilstøtende kart.


METAR-TAF: